Aérodrome :
LOGIN :

S'inscrire | Disclaimer

   EN    FR    IT 

 










Légende :    VFR   VFR Marginal   IFR   IFR Intensif   IFR Très Intensif
Visi : 
Plafond : 
>= 8 km
>= 3000ft
5 à 8 km
1000 à 3000 ft
1500m à 5 km
500 à 1000 ft
800 à 1500m
200 à 500 ft
< 800m
< 200 ft
Symboles :   Orages  Brouillard  Fortes neiges  Fortes précipitations  Vent > 20 kt
SIGMETs :   Divers  Orages  Givrage  Turbulence  Onde Orograph.  Cendres Volcan.







- Altitude de l'aérodrome : 144 ft
- Code IATA : PGF
- Voir les cartes d'approche


LFMP - Perpignan

DERNIER METAR :
  • 211130Z AUTO 31012KT 9999 NCD 29/16 Q1017 TEMPO 32015G25KT

METARs EXPIRÉS :
  • 211100Z AUTO 30011KT 270V330 9999 NCD 29/17 Q1017 TEMPO 32015G25KT
  • 211030Z AUTO 32008KT 280V350 9999 NCD 29/16 Q1018 TEMPO 32015G25KT
  • 211000Z AUTO VRB03KT CAVOK 29/16 Q1017 TEMPO 32015G25KT
  • 210930Z AUTO VRB03KT CAVOK 27/15 Q1017 TEMPO 32015G25KT
  • 210900Z AUTO 31003KT 270V350 CAVOK 27/16 Q1017 NOSIG

TAF TAF LFMP
Valide du 21 à 09h jusqu'au 22 à 09h UTC


210800Z 2109/2209 31010KT CAVOK
TEMPO 2111/2117 32015G25KT
ATIS : +33 4 68 63 75 12
Pas de NOTAMs connus pour ce terrain.



MET'MAP, la Météo Aéronautique d'un coup d'oeil ! - Copyright ORBIFLY Décembre 2007 - Disclaimer

ORBIFLY MET'MAP TEAM :

Programmation & Développement : Alexandra Zaïnal
Conception & Développement : Baudouin d'Aumeries
Co-Programmation & Développement : Marc-Olivier Méhu
Soutien technique & logistique : Manuel Goepfert

Contact : metmap@orbifly.com




SOURCES & CREDITS :

   NOAA